createdAt,value
2019-05-30T00:00:25.399Z,14.11
2019-05-30T00:02:27.656Z,13.95
2019-05-30T00:04:29.984Z,13.98
2019-05-30T00:06:32.310Z,13.96
2019-05-30T00:08:34.536Z,14.06
2019-05-30T00:10:36.673Z,14.00
2019-05-30T00:12:38.778Z,13.93
2019-05-30T00:14:41.996Z,13.96
2019-05-30T00:16:44.214Z,13.89
2019-05-30T00:18:46.396Z,13.91
2019-05-30T00:20:48.564Z,13.94
2019-05-30T00:22:50.658Z,13.88
2019-05-30T00:24:52.918Z,13.87
2019-05-30T00:26:56.205Z,13.91
2019-05-30T00:28:58.365Z,13.76
2019-05-30T00:31:00.831Z,13.79
2019-05-30T00:33:03.547Z,13.79
2019-05-30T00:35:07.235Z,13.79
2019-05-30T00:37:09.810Z,13.85
2019-05-30T00:39:11.917Z,13.85
2019-05-30T00:41:14.060Z,13.85
2019-05-30T00:43:16.101Z,13.78
2019-05-30T00:45:21.269Z,13.78
2019-05-30T00:47:22.795Z,13.73
2019-05-30T00:49:25.038Z,13.72
2019-05-30T00:51:26.779Z,13.64
2019-05-30T00:53:29.070Z,13.67
2019-05-30T00:55:31.203Z,13.74
2019-05-30T00:57:33.205Z,13.73
2019-05-30T00:59:36.474Z,13.75
2019-05-30T01:01:40.359Z,13.87
2019-05-30T01:03:42.409Z,13.81
2019-05-30T01:05:44.430Z,13.85
2019-05-30T01:07:46.466Z,13.77
2019-05-30T01:09:48.541Z,13.81
2019-05-30T01:11:50.585Z,13.85
2019-05-30T01:13:52.856Z,13.84
2019-05-30T01:15:54.972Z,13.83
2019-05-30T01:17:57.021Z,13.86
2019-05-30T01:19:59.162Z,13.88
2019-05-30T01:22:01.329Z,13.95
2019-05-30T01:24:03.937Z,13.91
2019-05-30T01:26:05.950Z,13.92
2019-05-30T01:28:08.249Z,13.95
2019-05-30T01:30:10.690Z,13.95
2019-05-30T01:32:30.544Z,13.91
2019-05-30T01:34:32.682Z,13.89
2019-05-30T01:36:34.858Z,13.92
2019-05-30T01:38:37.052Z,13.96
2019-05-30T01:40:39.212Z,13.95
2019-05-30T01:42:41.377Z,13.88
2019-05-30T01:44:43.651Z,13.98
2019-05-30T01:46:45.694Z,13.95
2019-05-30T01:48:47.713Z,13.95
2019-05-30T01:50:50.353Z,13.91
2019-05-30T01:52:52.247Z,14.01
2019-05-30T01:54:54.333Z,14.04
2019-05-30T01:56:56.737Z,14.15
2019-05-30T01:58:58.686Z,14.12
2019-05-30T02:01:17.980Z,14.07
2019-05-30T02:03:05.485Z,14.02
2019-05-30T02:05:07.823Z,14.03
2019-05-30T02:07:10.718Z,14.09
2019-05-30T02:09:12.995Z,14.07
2019-05-30T02:11:15.001Z,14.12
2019-05-30T02:13:16.979Z,14.20
2019-05-30T02:15:19.286Z,14.20
2019-05-30T02:17:21.352Z,14.21
2019-05-30T02:19:23.370Z,14.18
2019-05-30T02:21:25.880Z,14.22
2019-05-30T02:23:27.596Z,14.19
2019-05-30T02:25:30.836Z,14.23
2019-05-30T02:27:33.108Z,14.25
2019-05-30T02:29:35.178Z,14.23
2019-05-30T02:31:39.419Z,14.18
2019-05-30T02:33:41.329Z,14.19
2019-05-30T02:35:43.362Z,14.25
2019-05-30T02:37:45.441Z,14.25
2019-05-30T02:39:47.915Z,14.27
2019-05-30T02:41:49.496Z,14.32
2019-05-30T02:43:51.437Z,14.38
2019-05-30T02:45:53.691Z,14.41
2019-05-30T02:47:55.947Z,14.43
2019-05-30T02:49:58.213Z,14.35
2019-05-30T02:52:02.497Z,14.36
2019-05-30T02:54:06.982Z,14.25
2019-05-30T02:56:10.301Z,14.27
2019-05-30T02:58:13.527Z,14.30
2019-05-30T03:00:20.514Z,14.31
2019-05-30T03:02:22.705Z,14.27
2019-05-30T03:04:24.957Z,14.29
2019-05-30T03:06:27.181Z,14.30
2019-05-30T03:08:29.670Z,14.30
2019-05-30T03:10:31.530Z,14.30
2019-05-30T03:12:33.911Z,14.30
2019-05-30T03:14:35.897Z,14.24
2019-05-30T03:16:38.365Z,14.30
2019-05-30T03:18:41.385Z,14.30
2019-05-30T03:20:43.559Z,14.30
2019-05-30T03:22:46.894Z,14.35
2019-05-30T03:24:49.095Z,14.35
2019-05-30T03:26:52.206Z,14.36
2019-05-30T03:28:54.513Z,14.46
2019-05-30T03:30:57.749Z,14.45
2019-05-30T03:33:07.807Z,14.37
2019-05-30T03:35:09.179Z,14.40
2019-05-30T03:37:16.673Z,14.33
2019-05-30T03:39:14.522Z,14.37
2019-05-30T03:41:17.026Z,14.42
2019-05-30T03:43:19.021Z,14.37
2019-05-30T03:45:23.166Z,14.43
2019-05-30T03:47:29.044Z,14.45
2019-05-30T03:49:34.973Z,14.43
2019-05-30T03:51:40.289Z,14.48
2019-05-30T03:53:43.169Z,14.42
2019-05-30T03:55:49.435Z,14.49
2019-05-30T03:57:59.140Z,14.47
2019-05-30T04:00:06.032Z,14.53
2019-05-30T04:02:55.097Z,14.44
2019-05-30T04:04:48.950Z,14.50
2019-05-30T04:06:56.713Z,14.50
2019-05-30T04:09:07.009Z,14.50
2019-05-30T04:11:14.770Z,14.52
2019-05-30T04:13:45.414Z,14.55
2019-05-30T04:15:47.444Z,14.54
2019-05-30T04:17:49.470Z,14.56
2019-05-30T04:19:51.529Z,14.60
2019-05-30T04:21:53.880Z,14.63
2019-05-30T04:23:55.931Z,14.60
2019-05-30T04:26:00.534Z,14.66
2019-05-30T04:28:01.894Z,14.61
2019-05-30T04:30:04.348Z,14.62
2019-05-30T04:32:08.285Z,14.65
2019-05-30T04:34:10.321Z,14.61
2019-05-30T04:36:12.568Z,14.65
2019-05-30T04:38:17.047Z,14.66
2019-05-30T04:40:19.688Z,14.67
2019-05-30T04:42:22.121Z,14.67
2019-05-30T04:44:24.294Z,14.71
2019-05-30T04:46:26.328Z,14.73
2019-05-30T04:48:28.330Z,14.68
2019-05-30T04:50:30.419Z,14.72
2019-05-30T04:52:32.421Z,14.69
2019-05-30T04:54:34.492Z,14.67
2019-05-30T04:56:36.700Z,14.65
2019-05-30T04:58:42.274Z,14.72
2019-05-30T05:00:42.661Z,14.73
2019-05-30T05:02:44.755Z,14.72
2019-05-30T05:04:46.847Z,14.74
2019-05-30T05:06:48.873Z,14.77
2019-05-30T05:08:51.374Z,14.75
2019-05-30T05:10:52.942Z,14.72
2019-05-30T05:12:55.000Z,14.72
2019-05-30T05:14:57.408Z,14.77
2019-05-30T05:16:59.438Z,14.79
2019-05-30T05:19:01.473Z,14.79
2019-05-30T05:21:03.595Z,14.79
2019-05-30T05:23:06.065Z,14.79
2019-05-30T05:25:08.540Z,14.81
2019-05-30T05:27:10.560Z,14.84
2019-05-30T05:29:13.955Z,14.86
2019-05-30T05:31:16.540Z,14.82
2019-05-30T05:33:18.943Z,14.80
2019-05-30T05:35:20.974Z,14.81
2019-05-30T05:37:23.368Z,14.87
2019-05-30T05:39:25.630Z,14.91
2019-05-30T05:41:28.590Z,14.92
2019-05-30T05:43:30.843Z,14.90
2019-05-30T05:45:33.158Z,14.86
2019-05-30T05:47:35.366Z,14.88
2019-05-30T05:49:37.396Z,14.90
2019-05-30T05:51:39.962Z,14.94
2019-05-30T05:53:41.594Z,15.02
2019-05-30T05:55:43.810Z,15.00
2019-05-30T05:57:45.852Z,15.13
2019-05-30T05:59:47.950Z,15.15
2019-05-30T06:01:50.142Z,15.20
2019-05-30T06:03:52.320Z,15.19
2019-05-30T06:05:54.372Z,15.15
2019-05-30T06:07:56.401Z,15.27
2019-05-30T06:09:58.817Z,15.20
2019-05-30T06:12:00.943Z,15.15
2019-05-30T06:14:04.180Z,15.27
2019-05-30T06:16:06.508Z,15.36
2019-05-30T06:18:08.736Z,15.50
2019-05-30T06:20:11.102Z,15.50
2019-05-30T06:22:13.332Z,15.60
2019-05-30T06:24:15.573Z,15.60
2019-05-30T06:26:17.902Z,15.63
2019-05-30T06:28:20.456Z,15.55
2019-05-30T06:30:22.756Z,15.53
2019-05-30T06:32:24.758Z,15.59
2019-05-30T06:34:38.137Z,15.60
2019-05-30T06:36:30.941Z,15.54
2019-05-30T06:38:33.381Z,15.49
2019-05-30T06:40:35.581Z,15.56
2019-05-30T06:42:38.047Z,15.54
2019-05-30T06:44:40.090Z,15.54
2019-05-30T06:46:42.321Z,15.68
2019-05-30T06:48:44.352Z,15.56
2019-05-30T06:50:46.571Z,15.59
2019-05-30T06:52:48.567Z,15.63
2019-05-30T06:54:50.577Z,15.61
2019-05-30T06:56:53.006Z,15.57
2019-05-30T06:58:54.829Z,15.54
2019-05-30T07:00:57.233Z,15.52
2019-05-30T07:02:59.352Z,15.66
2019-05-30T07:05:02.499Z,15.75
2019-05-30T07:07:06.134Z,15.82
2019-05-30T07:09:08.654Z,15.89
2019-05-30T07:11:10.684Z,15.97
2019-05-30T07:13:12.715Z,15.94
2019-05-30T07:15:14.970Z,15.97
2019-05-30T07:17:17.206Z,15.82
2019-05-30T07:19:19.260Z,15.82
2019-05-30T07:21:21.333Z,15.83
2019-05-30T07:23:24.106Z,15.89
2019-05-30T07:25:26.288Z,15.80
2019-05-30T07:27:28.318Z,15.87
2019-05-30T07:29:31.883Z,15.93
2019-05-30T07:31:34.520Z,15.98
2019-05-30T07:33:37.605Z,15.94
2019-05-30T07:35:40.060Z,15.94
2019-05-30T07:37:46.245Z,15.92
2019-05-30T07:39:46.289Z,15.99
2019-05-30T07:42:04.911Z,16.04
2019-05-30T07:43:52.702Z,15.95
2019-05-30T07:45:58.322Z,16.10
2019-05-30T07:47:58.884Z,16.26
2019-05-30T07:50:01.024Z,16.10
2019-05-30T07:52:03.151Z,16.17
2019-05-30T07:54:05.797Z,16.31
2019-05-30T07:56:08.230Z,16.40
2019-05-30T07:58:10.265Z,16.47
2019-05-30T08:00:14.351Z,16.46
2019-05-30T08:02:16.376Z,16.61
2019-05-30T08:04:18.431Z,16.69
2019-05-30T08:06:21.019Z,16.76
2019-05-30T08:08:23.182Z,16.74
2019-05-30T08:10:25.406Z,16.88
2019-05-30T08:12:28.006Z,16.73
2019-05-30T08:14:33.172Z,16.47
2019-05-30T08:16:35.606Z,16.55
2019-05-30T08:18:37.946Z,16.54
2019-05-30T08:20:41.471Z,16.45
2019-05-30T08:22:44.910Z,16.46
2019-05-30T08:24:46.971Z,16.55
2019-05-30T08:26:49.033Z,16.58
2019-05-30T08:28:52.347Z,16.77
2019-05-30T08:30:56.980Z,16.87
2019-05-30T08:32:59.660Z,17.07
2019-05-30T08:35:01.988Z,16.93
2019-05-30T08:37:04.457Z,17.05
2019-05-30T08:39:06.891Z,17.15
2019-05-30T08:41:09.189Z,17.28
2019-05-30T08:43:11.226Z,17.19
2019-05-30T08:45:15.340Z,17.32
2019-05-30T08:47:17.414Z,17.28
2019-05-30T08:49:20.379Z,17.16
2019-05-30T08:51:22.157Z,17.22
2019-05-30T08:53:24.528Z,17.29
2019-05-30T08:55:27.011Z,17.25
2019-05-30T08:57:28.735Z,17.12
2019-05-30T08:59:32.416Z,17.01
2019-05-30T09:01:35.745Z,17.02
2019-05-30T09:03:38.483Z,17.07
2019-05-30T09:05:57.256Z,17.08
2019-05-30T09:07:44.740Z,17.24
2019-05-30T09:09:46.736Z,17.22
2019-05-30T09:11:48.836Z,17.17
2019-05-30T09:13:51.506Z,17.38
2019-05-30T09:15:53.545Z,17.59
2019-05-30T09:17:55.554Z,17.75
2019-05-30T09:19:57.890Z,17.84
2019-05-30T09:21:59.951Z,17.51
2019-05-30T09:24:02.085Z,17.56
2019-05-30T09:26:04.481Z,17.86
2019-05-30T09:28:06.262Z,17.84
2019-05-30T09:30:09.049Z,17.84
2019-05-30T09:32:11.799Z,17.98
2019-05-30T09:34:14.155Z,18.11
2019-05-30T09:36:16.535Z,18.16
2019-05-30T09:38:18.915Z,18.14
2019-05-30T09:40:21.764Z,17.75
2019-05-30T09:42:24.011Z,17.57
2019-05-30T09:44:26.529Z,17.43
2019-05-30T09:46:28.381Z,17.32
2019-05-30T09:48:30.790Z,17.36
2019-05-30T09:50:33.429Z,17.48
2019-05-30T09:52:36.164Z,17.52
2019-05-30T09:54:37.929Z,17.49
2019-05-30T09:56:40.436Z,17.54
2019-05-30T09:58:43.838Z,17.67
2019-05-30T10:00:47.238Z,17.86
2019-05-30T10:02:50.652Z,17.80
2019-05-30T10:04:52.811Z,17.75
2019-05-30T10:06:55.075Z,17.76
2019-05-30T10:08:57.314Z,17.79
2019-05-30T10:10:59.564Z,18.01
2019-05-30T10:13:01.601Z,18.02
2019-05-30T10:15:05.051Z,17.98
2019-05-30T10:17:09.287Z,17.85
2019-05-30T10:19:11.419Z,17.78
2019-05-30T10:21:13.579Z,18.03
2019-05-30T10:23:15.889Z,18.03
2019-05-30T10:25:17.921Z,18.14
2019-05-30T10:27:20.085Z,17.78
2019-05-30T10:29:22.474Z,17.86
2019-05-30T10:31:24.506Z,17.92
2019-05-30T10:33:26.875Z,17.69
2019-05-30T10:35:29.967Z,17.53
2019-05-30T10:37:32.590Z,17.43
2019-05-30T10:39:34.855Z,17.30
2019-05-30T10:41:36.878Z,17.53
2019-05-30T10:43:38.912Z,17.69
2019-05-30T10:45:41.187Z,17.82
2019-05-30T10:47:43.207Z,17.85
2019-05-30T10:49:46.838Z,17.89
2019-05-30T10:51:51.505Z,18.09
2019-05-30T10:53:54.111Z,18.33
2019-05-30T10:55:57.318Z,18.33
2019-05-30T10:57:59.867Z,18.63
2019-05-30T11:00:04.805Z,18.80
2019-05-30T11:02:07.079Z,18.71
2019-05-30T11:04:09.264Z,18.60
2019-05-30T11:07:01.255Z,18.64
2019-05-30T11:08:52.832Z,19.13
2019-05-30T11:10:55.119Z,19.21
2019-05-30T11:13:05.282Z,19.39
2019-05-30T11:15:01.590Z,19.45
2019-05-30T11:17:03.677Z,19.59
2019-05-30T11:19:07.736Z,19.32
2019-05-30T11:21:10.187Z,19.44
2019-05-30T11:23:11.827Z,19.57
2019-05-30T11:25:13.862Z,19.74
2019-05-30T11:27:16.327Z,19.75
2019-05-30T11:29:18.444Z,19.52
2019-05-30T11:31:21.425Z,19.48
2019-05-30T11:33:23.501Z,19.50
2019-05-30T11:35:26.310Z,19.61
2019-05-30T11:37:28.325Z,19.57
2019-05-30T11:39:30.639Z,19.38
2019-05-30T11:41:32.871Z,19.33
2019-05-30T11:43:34.946Z,19.35
2019-05-30T11:45:37.028Z,19.49
2019-05-30T11:47:39.275Z,19.43
2019-05-30T11:49:41.346Z,19.18
2019-05-30T11:51:43.402Z,19.11
2019-05-30T11:53:45.854Z,18.78
2019-05-30T11:55:48.072Z,18.60
2019-05-30T11:57:50.281Z,18.69
2019-05-30T11:59:52.561Z,18.78
2019-05-30T12:01:54.629Z,18.57
2019-05-30T12:03:56.986Z,18.56
2019-05-30T12:06:04.178Z,19.13
2019-05-30T12:08:06.179Z,19.36
2019-05-30T12:10:09.539Z,19.68
2019-05-30T12:12:11.786Z,19.71
2019-05-30T12:14:13.688Z,19.95
2019-05-30T12:16:16.213Z,19.76
2019-05-30T12:18:18.389Z,19.86
2019-05-30T12:20:20.504Z,19.70
2019-05-30T12:22:22.577Z,19.80
2019-05-30T12:24:24.649Z,19.66
2019-05-30T12:26:26.800Z,19.67
2019-05-30T12:28:28.912Z,20.13
2019-05-30T12:30:31.278Z,20.31
2019-05-30T12:32:33.446Z,20.42
2019-05-30T12:34:35.484Z,19.83
2019-05-30T12:36:37.807Z,19.85
2019-05-30T12:38:39.829Z,19.61
2019-05-30T12:40:43.094Z,19.89
2019-05-30T12:42:45.177Z,19.56
2019-05-30T12:44:47.277Z,19.59
2019-05-30T12:46:49.302Z,19.31
2019-05-30T12:48:51.859Z,19.22
2019-05-30T12:50:57.124Z,19.54
2019-05-30T12:53:00.461Z,19.61
2019-05-30T12:55:04.508Z,19.80
2019-05-30T12:57:07.014Z,20.14
2019-05-30T12:59:09.465Z,20.15
2019-05-30T13:01:12.049Z,20.49
2019-05-30T13:03:14.178Z,20.72
2019-05-30T13:05:16.249Z,20.75
2019-05-30T13:07:18.731Z,20.70
2019-05-30T13:09:21.822Z,20.77
2019-05-30T13:11:23.864Z,20.92
2019-05-30T13:13:26.475Z,21.18
2019-05-30T13:15:28.245Z,21.35
2019-05-30T13:17:30.521Z,20.84
2019-05-30T13:19:32.657Z,20.51
2019-05-30T13:21:34.955Z,20.29
2019-05-30T13:23:37.399Z,20.48
2019-05-30T13:25:39.381Z,20.39
2019-05-30T13:27:41.468Z,20.13
2019-05-30T13:29:43.550Z,20.13
2019-05-30T13:31:46.286Z,20.44
2019-05-30T13:33:48.361Z,20.66
2019-05-30T13:35:50.621Z,20.63
2019-05-30T13:37:53.348Z,20.61
2019-05-30T13:39:55.513Z,20.33
2019-05-30T13:41:57.713Z,20.44
2019-05-30T13:44:03.254Z,20.33
2019-05-30T13:46:04.657Z,20.38
2019-05-30T13:48:08.640Z,20.44
2019-05-30T13:50:14.193Z,20.45
2019-05-30T13:52:15.900Z,20.54
2019-05-30T13:54:18.063Z,20.41
2019-05-30T13:56:20.294Z,20.50
2019-05-30T13:58:22.425Z,20.31
2019-05-30T14:00:24.705Z,20.15
2019-05-30T14:02:27.204Z,20.02
2019-05-30T14:04:29.037Z,19.74
2019-05-30T14:06:31.634Z,19.83
2019-05-30T14:08:41.599Z,20.02
2019-05-30T14:10:37.813Z,19.99
2019-05-30T14:12:40.070Z,20.29
2019-05-30T14:14:42.341Z,20.24
2019-05-30T14:16:44.380Z,19.92
2019-05-30T14:18:46.443Z,19.79
2019-05-30T14:20:48.630Z,20.01
2019-05-30T14:22:50.711Z,20.22
2019-05-30T14:24:52.950Z,20.50
2019-05-30T14:26:54.952Z,20.53
2019-05-30T14:28:57.201Z,20.65
2019-05-30T14:30:59.383Z,20.70
2019-05-30T14:33:02.095Z,20.82
2019-05-30T14:35:06.404Z,20.70
2019-05-30T14:37:08.743Z,20.73
2019-05-30T14:39:11.277Z,20.87
2019-05-30T14:41:13.570Z,20.94
2019-05-30T14:43:15.587Z,20.80
2019-05-30T14:45:20.432Z,20.84
2019-05-30T14:47:22.697Z,20.88
2019-05-30T14:49:24.728Z,21.03
2019-05-30T14:51:28.174Z,21.14
2019-05-30T14:53:30.729Z,20.97
2019-05-30T14:55:32.804Z,20.76
2019-05-30T14:57:35.160Z,20.57
2019-05-30T14:59:37.296Z,20.65
2019-05-30T15:01:39.410Z,20.67
2019-05-30T15:03:41.666Z,20.54
2019-05-30T15:05:43.783Z,20.81
2019-05-30T15:07:45.881Z,20.81
2019-05-30T15:09:49.188Z,20.80
2019-05-30T15:11:51.297Z,21.07
2019-05-30T15:13:54.438Z,21.26
2019-05-30T15:15:57.317Z,21.32
2019-05-30T15:17:59.469Z,21.41
2019-05-30T15:20:01.630Z,21.42
2019-05-30T15:22:05.534Z,21.48
2019-05-30T15:24:07.827Z,21.52
2019-05-30T15:26:09.999Z,21.68
2019-05-30T15:28:14.145Z,21.53
2019-05-30T15:30:17.027Z,21.24
2019-05-30T15:32:19.392Z,21.04
2019-05-30T15:34:21.909Z,20.85
2019-05-30T15:36:23.631Z,20.81
2019-05-30T15:38:25.839Z,20.95
2019-05-30T15:40:27.991Z,20.74
2019-05-30T15:42:30.395Z,20.58
2019-05-30T15:44:32.772Z,20.63
2019-05-30T15:46:34.551Z,20.74
2019-05-30T15:48:36.626Z,20.62
2019-05-30T15:50:38.787Z,20.87
2019-05-30T15:52:41.117Z,21.05
2019-05-30T15:54:43.199Z,21.06
2019-05-30T15:56:46.817Z,20.89
2019-05-30T15:58:49.078Z,20.76
2019-05-30T16:00:51.358Z,20.72
2019-05-30T16:02:53.373Z,20.87
2019-05-30T16:04:55.579Z,20.87
2019-05-30T16:06:57.680Z,20.94
2019-05-30T16:08:59.745Z,21.03
2019-05-30T16:11:01.984Z,21.00
2019-05-30T16:13:05.264Z,20.99
2019-05-30T16:15:07.530Z,20.85
2019-05-30T16:17:11.757Z,20.70
2019-05-30T16:19:20.156Z,20.43
2019-05-30T16:21:18.666Z,20.37
2019-05-30T16:23:22.456Z,20.46
2019-05-30T16:25:25.809Z,20.73
2019-05-30T16:27:31.055Z,20.60
2019-05-30T16:29:32.234Z,20.45
2019-05-30T16:31:34.329Z,20.46
2019-05-30T16:33:36.597Z,20.66
2019-05-30T16:35:39.131Z,20.56
2019-05-30T16:37:41.209Z,20.67
2019-05-30T16:39:43.231Z,20.62
2019-05-30T16:41:45.509Z,20.67
2019-05-30T16:43:48.109Z,20.62
2019-05-30T16:45:50.312Z,20.44
2019-05-30T16:47:52.430Z,20.09
2019-05-30T16:49:54.594Z,19.90
2019-05-30T16:51:56.689Z,19.85
2019-05-30T16:53:58.754Z,19.82
2019-05-30T16:56:00.828Z,20.01
2019-05-30T16:58:03.012Z,20.16
2019-05-30T17:00:05.825Z,20.16
2019-05-30T17:02:08.048Z,20.08
2019-05-30T17:04:10.048Z,20.06
2019-05-30T17:06:12.411Z,20.12
2019-05-30T17:08:14.466Z,20.04
2019-05-30T17:10:23.379Z,19.89
2019-05-30T17:12:21.736Z,19.90
2019-05-30T17:14:24.043Z,19.98
2019-05-30T17:16:27.367Z,19.95
2019-05-30T17:18:29.800Z,20.05
2019-05-30T17:20:31.440Z,20.03
2019-05-30T17:22:33.401Z,19.93
2019-05-30T17:24:36.265Z,19.83
2019-05-30T17:26:38.325Z,19.93
2019-05-30T17:28:40.548Z,19.99
2019-05-30T17:30:42.785Z,19.87
2019-05-30T17:32:44.993Z,19.87
2019-05-30T17:34:47.046Z,19.91
2019-05-30T17:36:49.591Z,19.86
2019-05-30T17:38:51.284Z,19.67
2019-05-30T17:40:53.276Z,19.71
2019-05-30T17:42:55.374Z,19.73
2019-05-30T17:44:57.719Z,19.67
2019-05-30T17:46:59.858Z,19.47
2019-05-30T17:49:02.272Z,19.50
2019-05-30T17:51:04.053Z,19.51
2019-05-30T17:53:06.279Z,19.58
2019-05-30T17:55:08.962Z,19.46
2019-05-30T17:57:12.333Z,19.39
2019-05-30T17:59:16.209Z,19.31
2019-05-30T18:01:18.422Z,19.30
2019-05-30T18:03:20.909Z,19.25
2019-05-30T18:05:22.571Z,19.35
2019-05-30T18:07:24.943Z,19.28
2019-05-30T18:09:27.197Z,19.23
2019-05-30T18:11:29.467Z,19.22
2019-05-30T18:13:31.764Z,19.23
2019-05-30T18:15:33.909Z,19.34
2019-05-30T18:17:36.017Z,19.35
2019-05-30T18:19:38.212Z,19.27
2019-05-30T18:21:41.086Z,19.25
2019-05-30T18:23:44.847Z,19.29
2019-05-30T18:25:47.076Z,19.37
2019-05-30T18:27:49.130Z,19.28
2019-05-30T18:29:51.154Z,19.26
2019-05-30T18:31:53.982Z,19.28
2019-05-30T18:33:56.339Z,19.22
2019-05-30T18:35:58.403Z,19.24
2019-05-30T18:38:01.968Z,19.17
2019-05-30T18:40:05.145Z,19.21
2019-05-30T18:42:07.411Z,19.26
2019-05-30T18:44:10.028Z,19.23
2019-05-30T18:46:12.075Z,19.12
2019-05-30T18:48:14.239Z,19.09
2019-05-30T18:50:16.736Z,18.89
2019-05-30T18:52:18.889Z,18.94
2019-05-30T18:54:20.928Z,18.76
2019-05-30T18:56:23.119Z,18.75
2019-05-30T18:58:25.258Z,18.79
2019-05-30T19:00:27.413Z,18.63
2019-05-30T19:02:31.276Z,18.68
2019-05-30T19:04:33.712Z,18.75
2019-05-30T19:06:36.246Z,18.73
2019-05-30T19:08:38.779Z,18.59
2019-05-30T19:10:40.874Z,18.51
2019-05-30T19:12:44.323Z,18.50
2019-05-30T19:14:46.494Z,18.54
2019-05-30T19:16:48.575Z,18.51
2019-05-30T19:18:50.901Z,18.48
2019-05-30T19:20:53.202Z,18.43
2019-05-30T19:22:55.250Z,18.43
2019-05-30T19:24:58.553Z,18.40
2019-05-30T19:27:00.762Z,18.38
2019-05-30T19:29:02.903Z,18.45
2019-05-30T19:31:05.104Z,18.42
2019-05-30T19:33:07.406Z,18.48
2019-05-30T19:35:10.223Z,18.44
2019-05-30T19:37:12.497Z,18.33
2019-05-30T19:39:14.930Z,18.33
2019-05-30T19:41:17.025Z,18.34
2019-05-30T19:43:19.074Z,18.36
2019-05-30T19:45:21.646Z,18.39
2019-05-30T19:47:23.722Z,18.37
2019-05-30T19:49:26.057Z,18.35
2019-05-30T19:51:28.724Z,18.33
2019-05-30T19:53:31.001Z,18.29
2019-05-30T19:55:33.321Z,18.33
2019-05-30T19:57:35.744Z,18.33
2019-05-30T19:59:37.923Z,18.27
2019-05-30T20:01:40.448Z,18.30
2019-05-30T20:03:46.763Z,18.32
2019-05-30T20:05:46.386Z,18.27
2019-05-30T20:07:48.467Z,18.17
2019-05-30T20:10:00.885Z,18.21
2019-05-30T20:12:03.185Z,18.21
2019-05-30T20:14:00.391Z,18.19
2019-05-30T20:16:02.448Z,18.26
2019-05-30T20:18:04.610Z,18.28
2019-05-30T20:20:07.299Z,18.12
2019-05-30T20:22:09.892Z,18.00
2019-05-30T20:24:12.281Z,17.97
2019-05-30T20:26:14.582Z,18.01
2019-05-30T20:28:17.019Z,18.05
2019-05-30T20:30:19.076Z,18.06
2019-05-30T20:32:21.836Z,18.06
2019-05-30T20:34:24.330Z,18.07
2019-05-30T20:36:26.449Z,18.00
2019-05-30T20:38:28.847Z,18.08
2019-05-30T20:40:32.468Z,18.09
2019-05-30T20:42:34.743Z,18.17
2019-05-30T20:44:36.957Z,18.18
2019-05-30T20:46:39.255Z,18.21
2019-05-30T20:48:43.634Z,18.11
2019-05-30T20:50:45.320Z,18.12
2019-05-30T20:52:47.724Z,18.13
2019-05-30T20:54:49.459Z,18.12
2019-05-30T20:56:52.031Z,18.17
2019-05-30T20:58:54.899Z,18.20
2019-05-30T21:00:57.091Z,18.14
2019-05-30T21:02:59.232Z,18.15
2019-05-30T21:05:01.602Z,18.16
2019-05-30T21:07:03.391Z,18.09
2019-05-30T21:09:06.229Z,18.16
2019-05-30T21:11:09.818Z,18.18
2019-05-30T21:13:12.070Z,18.10
2019-05-30T21:15:14.306Z,18.10
2019-05-30T21:17:18.802Z,18.06
2019-05-30T21:19:20.943Z,18.09
2019-05-30T21:21:22.990Z,18.10
2019-05-30T21:23:25.057Z,18.07
2019-05-30T21:25:27.528Z,18.10
2019-05-30T21:27:29.233Z,18.12
2019-05-30T21:29:31.455Z,18.19
2019-05-30T21:31:33.944Z,18.23
2019-05-30T21:33:35.576Z,18.14
2019-05-30T21:35:37.952Z,18.08
2019-05-30T21:37:39.973Z,18.09
2019-05-30T21:39:42.114Z,18.10
2019-05-30T21:41:44.624Z,18.10
2019-05-30T21:43:46.925Z,18.11
2019-05-30T21:45:49.091Z,18.14
2019-05-30T21:47:51.254Z,17.95
2019-05-30T21:51:09.682Z,17.93
2019-05-30T21:53:11.759Z,17.86
2019-05-30T21:55:15.547Z,17.84
2019-05-30T21:57:17.642Z,17.96
2019-05-30T21:59:20.019Z,17.86
2019-05-30T22:01:31.669Z,17.83
2019-05-30T22:03:33.852Z,17.93
2019-05-30T22:05:36.165Z,17.97
2019-05-30T22:07:38.254Z,17.91
2019-05-30T22:09:41.201Z,17.86
2019-05-30T22:11:43.711Z,17.86
2019-05-30T22:13:45.739Z,17.88
2019-05-30T22:15:48.249Z,17.85
2019-05-30T22:17:50.189Z,17.75
2019-05-30T22:19:52.473Z,17.76
2019-05-30T22:21:54.909Z,17.74
2019-05-30T22:23:56.938Z,17.76
2019-05-30T22:25:59.327Z,17.79
2019-05-30T22:28:01.330Z,17.74
2019-05-30T22:30:04.130Z,17.67
2019-05-30T22:32:07.398Z,17.76
2019-05-30T22:34:09.472Z,17.74
2019-05-30T22:36:11.535Z,17.73
2019-05-30T22:38:13.527Z,17.69
2019-05-30T22:40:15.561Z,17.65
2019-05-30T22:42:17.850Z,17.63
2019-05-30T22:44:20.047Z,17.62
2019-05-30T22:46:22.091Z,17.54
2019-05-30T22:48:24.336Z,17.54
2019-05-30T22:50:26.371Z,17.54
2019-05-30T22:52:28.367Z,17.46
2019-05-30T22:54:30.564Z,17.51
2019-05-30T22:56:32.895Z,17.37
2019-05-30T22:58:35.072Z,17.34
2019-05-30T23:00:37.113Z,17.33
2019-05-30T23:02:39.304Z,17.38
2019-05-30T23:04:41.360Z,17.31
2019-05-30T23:06:43.550Z,17.34
2019-05-30T23:08:46.382Z,17.24
2019-05-30T23:10:49.641Z,17.26
2019-05-30T23:12:52.062Z,17.19
2019-05-30T23:14:54.347Z,17.25
2019-05-30T23:16:56.705Z,17.15
2019-05-30T23:18:58.755Z,17.19
2019-05-30T23:21:00.903Z,17.21
2019-05-30T23:23:02.983Z,17.13
2019-05-30T23:25:05.237Z,17.10
2019-05-30T23:27:08.358Z,17.17
2019-05-30T23:29:10.749Z,17.20
2019-05-30T23:31:13.058Z,17.13
2019-05-30T23:33:15.209Z,17.10
2019-05-30T23:35:17.285Z,17.16
2019-05-30T23:37:19.488Z,17.12
2019-05-30T23:39:21.579Z,17.15
2019-05-30T23:41:23.724Z,17.11
2019-05-30T23:43:26.554Z,17.13
2019-05-30T23:45:28.618Z,17.15
2019-05-30T23:47:30.773Z,17.08
2019-05-30T23:49:33.470Z,16.92
2019-05-30T23:51:35.867Z,16.81
2019-05-30T23:53:38.111Z,16.83
2019-05-30T23:55:40.502Z,16.92
2019-05-30T23:57:42.633Z,16.98
2019-05-30T23:59:44.900Z,16.96
